Estación meteorológica de Mataró (Maresme, Maresme)

Consulta los datos en tiempo real de la estación meteorológica de Mataró





Hora UTC 12:25
Temperatura 28.7 ºC
Suelo 15 cm 39.2 ºC
Humedad 50.9 %
Presión 1021.0 hPa
Pluja 0.0 mm
Velocidad viento 13.6 km/h
Dirección viento SE
Radiación solar 715.2 W/m²

Webcam

Datos diarios 2026-09-02



Hora UTC (invierno +1h; verano +2h)
Temperatura (ºC) Humedad (%) Presión (hPa) Velocidad viento (km/h) Precipitación (mm) Radiación solar (W/m²)
Hora UTC Aire Suelo 15 cm Humedad Presión Vel. Dir. Vel. Max Dir. Intent. máx 5 min. Rad. Sol.
00:05 23.2 22.0 74.5 1019.6 7.1 NNW 7.1 NNW 0.0 0.1
00:10 23.3 22.2 74.3 1019.6 8.2 NNW 11.6 NNW 0.0 0.1
00:15 23.3 22.3 74.0 1019.5 8.0 NNW 11.3 NNW 0.0 0.1
00:20 23.4 22.4 73.9 1019.4 8.2 NNW 10.6 NNW 0.0 0.1
00:25 23.4 22.5 73.7 1019.4 8.6 NNW 11.6 NNW 0.0 0.1
00:30 23.4 22.5 73.6 1019.5 7.3 NNW 9.9 NW 0.0 0.1
00:35 23.5 22.6 73.1 1019.5 8.2 NNW 13.1 NW 0.0 0.1
00:40 23.6 22.6 72.9 1019.5 8.1 NNW 12.0 NW 0.0 0.1
00:45 23.5 22.6 73.1 1019.5 5.3 NNW 8.5 WNW 0.0 0.1
00:50 23.4 22.6 73.3 1019.4 5.6 NW 8.5 NW 0.0 0.1
00:55 23.3 22.4 73.3 1019.4 6.6 NW 12.7 NNW 0.0 0.1
01:00 23.3 22.4 72.9 1019.4 8.7 NW 12.7 NW 0.0 0.1
01:05 23.4 22.4 72.6 1019.3 9.8 NNW 13.1 NW 0.0 0.1
01:10 23.4 22.4 72.7 1019.3 10.3 NNW 13.8 NNW 0.0 0.1
01:15 23.4 22.5 72.7 1019.4 13.0 NNW 18.4 NW 0.0 0.1
01:20 23.5 22.6 72.5 1019.4 11.7 NNW 17.6 NNW 0.0 0.1
01:25 23.4 22.6 73.1 1019.3 11.2 NNW 16.9 NNW 0.0 0.1
01:30 23.4 22.6 73.9 1019.1 11.0 NNW 15.5 N 0.0 0.1
01:35 23.3 22.6 74.7 1019.0 11.7 NNW 16.6 NW 0.0 0.1
01:40 23.3 22.5 75.1 1019.0 12.6 NNW 18.7 NNW 0.0 0.1
01:45 23.4 22.5 75.2 1019.0 13.1 NNW 18.0 NNW 0.0 0.1
01:50 23.4 22.6 75.1 1019.0 13.9 NNW 18.4 NNW 0.0 0.1
01:55 23.4 22.6 75.2 1019.0 12.3 NNW 17.3 NW 0.0 0.1
02:00 23.3 22.6 75.5 1018.9 10.1 NNW 17.6 NNW 0.0 0.1
02:05 23.3 22.6 75.8 1018.9 9.9 NNW 15.9 NNW 0.0 0.1
02:10 23.3 22.6 75.8 1018.9 9.6 NNW 14.8 NNW 0.0 0.1
02:15 23.3 22.6 76.0 1018.9 6.8 NW 14.1 NNW 0.0 0.1
02:20 23.3 22.6 76.1 1018.9 7.3 NNW 14.8 N 0.0 0.1
02:25 23.3 22.5 75.7 1018.9 5.2 NW 11.3 NW 0.0 0.1
02:30 23.3 22.5 74.5 1018.9 6.4 NNW 10.9 NNW 0.0 0.1
02:35 23.4 22.5 74.0 1019.0 8.7 NW 15.2 NW 0.0 0.1
02:40 23.6 22.5 73.7 1018.9 13.4 NNW 21.5 NW 0.0 0.1
02:45 23.7 22.7 74.2 1018.9 15.1 NNW 22.2 NW 0.0 0.1
02:50 23.8 22.9 74.9 1018.8 13.9 NNW 22.6 NNW 0.0 0.1
02:55 23.9 23.0 75.5 1018.7 11.8 NNW 19.4 NNW 0.0 0.1
03:00 23.9 23.1 75.8 1018.8 5.0 NW 10.2 NW 0.0 0.1
03:05 23.7 23.0 76.2 1018.8 9.1 NNW 15.2 NNW 0.0 0.1
03:10 23.8 23.0 75.6 1018.8 11.2 NNW 16.2 N 0.0 0.1
03:15 23.8 23.0 74.6 1018.8 12.0 NNW 20.1 NNW 0.0 0.1
03:20 23.9 23.1 73.4 1018.7 13.8 NNW 19.8 NNW 0.0 0.1
03:25 24.1 23.2 71.4 1018.7 13.8 NNW 19.8 NNW 0.0 0.1
03:30 24.4 23.3 69.3 1018.7 14.8 NNW 20.1 NNW 0.0 0.1
03:35 24.6 23.5 67.7 1018.7 13.4 NNW 19.1 N 0.0 0.1
03:40 24.7 23.6 66.8 1018.7 14.1 NNW 20.1 NNW 0.0 0.1
03:45 24.8 23.8 65.5 1018.7 13.3 NNW 16.9 NNW 0.0 0.1
03:50 24.9 23.9 64.3 1018.6 11.5 NNW 18.0 NNW 0.0 0.1
03:55 24.9 23.9 64.0 1018.6 11.2 NNW 15.5 NNW 0.0 0.1
04:00 24.8 23.9 63.9 1018.6 9.8 NNW 14.5 NNW 0.0 0.1
04:05 24.7 23.8 65.0 1018.6 10.6 NNW 14.1 NNW 0.0 0.1
04:10 24.6 23.7 64.4 1018.6 8.6 NNW 13.4 NNW 0.0 0.1
04:15 24.5 23.6 65.5 1018.6 5.9 NW 9.9 NNW 0.0 0.1
04:20 24.3 23.3 66.6 1018.6 2.5 WNW 7.1 NW 0.0 0.1
04:25 24.0 22.8 67.9 1018.6 4.3 SSE 8.1 SSE 0.0 0.1
04:30 23.8 22.4 70.8 1018.6 4.7 SE 7.8 SE 0.0 0.1
04:35 23.6 22.1 73.2 1018.7 1.7 SW 4.6 S 0.0 0.1
04:40 23.3 21.8 74.5 1018.7 2.9 WNW 6.4 NW 0.0 0.1
04:45 23.0 21.6 75.6 1018.7 5.3 NNW 7.1 WNW 0.0 0.1
04:50 22.6 21.4 76.4 1018.7 4.4 NNW 5.6 NNW 0.0 0.1
04:55 22.4 21.2 77.4 1018.8 4.7 NNW 6.0 NNW 0.0 0.2
05:00 22.4 21.1 77.5 1018.7 4.6 N 5.3 0.0 0.5
05:05 22.4 21.0 78.0 1018.7 4.6 NNE 5.3 N 0.0 1.0
05:10 22.4 21.0 79.0 1018.8 4.7 NNE 5.6 NNE 0.0 1.9
05:15 22.5 21.1 78.8 1019.0 3.7 NNE 5.3 NNE 0.0 3.2
05:20 22.6 21.2 78.6 1018.9 4.5 NNE 7.1 NNE 0.0 5.1
05:25 22.5 21.2 78.6 1018.9 5.7 N 8.5 N 0.0 7.8
05:30 22.5 21.2 78.5 1018.9 3.5 N 6.4 NE 0.0 10.9
05:35 22.6 21.4 77.5 1019.0 5.3 NNE 9.5 N 0.0 14.3
05:40 23.0 21.6 75.3 1019.0 5.1 NNE 8.8 NNE 0.0 17.5
05:45 23.0 21.8 75.4 1019.0 2.2 N 3.5 N 0.0 20.9
05:50 22.8 21.9 76.1 1019.0 2.8 N 3.9 N 0.0 24.0
05:55 22.8 21.9 76.4 1019.0 3.0 NNW 4.2 N 0.0 27.0
06:00 22.7 22.0 76.5 1019.0 3.7 NNW 4.9 NNW 0.0 55.0
06:05 22.8 22.2 75.9 1019.1 3.1 NNW 4.6 NNW 0.0 91.5
06:10 23.1 22.9 74.7 1019.1 2.5 NW 3.9 NW 0.0 104.9
06:15 23.3 23.9 73.9 1019.2 2.6 NW 3.9 NW 0.0 117.9
06:20 23.5 25.0 73.1 1019.3 1.1 NW 2.5 NW 0.0 130.4
06:25 23.9 26.0 72.1 1019.3 0.0 NNE 0.0 WNW 0.0 144.3
06:30 24.1 27.1 70.7 1019.3 0.0 NNE 0.0 WNW 0.0 158.6
06:35 24.3 28.1 69.7 1019.4 0.0 WNW 1.1 WNW 0.0 172.7
06:40 24.6 29.0 68.4 1019.5 0.0 NNE 0.0 NW 0.0 185.7
06:45 25.1 29.8 67.3 1019.5 1.3 E 3.2 E 0.0 199.2
06:50 25.5 30.4 65.3 1019.6 0.5 ESE 4.2 ESE 0.0 212.7
06:55 25.9 31.0 64.1 1019.6 0.3 E 1.8 ENE 0.0 227.0
07:00 26.2 31.5 63.7 1019.6 0.6 ESE 2.5 E 0.0 240.9
07:05 26.6 32.1 61.9 1019.6 1.7 SSE 3.5 SSE 0.0 254.7
07:10 26.8 32.5 60.9 1019.7 2.7 SSE 4.2 SSW 0.0 268.2
07:15 26.9 32.8 60.8 1019.7 2.4 SSE 5.3 S 0.0 281.6
07:20 27.0 33.2 60.2 1019.8 3.5 S 6.0 SSE 0.0 296.0
07:25 26.8 33.4 60.4 1019.8 3.4 SSW 6.0 S 0.0 310.7
07:30 27.0 33.7 60.3 1019.8 5.4 SSE 7.8 SSE 0.0 324.4
07:35 27.1 34.1 59.9 1019.7 5.5 S 9.2 SSE 0.0 338.4
07:40 27.2 34.3 60.6 1019.7 5.3 SSE 7.8 SSE 0.0 353.3
07:45 27.3 34.6 60.8 1019.7 6.6 SSE 10.2 SSE 0.0 367.3
07:50 27.4 34.9 61.6 1019.8 6.5 SSE 11.3 SSE 0.0 381.1
07:55 27.5 35.0 60.8 1019.8 6.7 SE 10.2 SSE 0.0 394.2
08:00 27.5 35.1 61.1 1019.9 6.5 SE 10.2 SE 0.0 406.3
08:05 27.6 35.1 59.8 1019.9 8.5 SE 12.4 SE 0.0 420.0
08:10 27.6 35.1 59.1 1019.9 7.4 SE 12.4 SSE 0.0 433.3
08:15 27.8 35.2 57.8 1020.0 7.6 SE 12.7 SSE 0.0 446.4
08:20 27.9 35.4 57.6 1020.0 5.9 SE 11.3 SE 0.0 457.2
08:25 28.1 35.6 58.0 1020.1 7.5 SE 10.6 SE 0.0 469.2
08:30 28.1 35.8 57.9 1020.2 8.5 SSE 12.7 S 0.0 480.9
08:35 28.0 36.0 57.9 1020.2 8.1 SE 14.8 SE 0.0 492.4
08:40 28.1 36.2 57.4 1020.2 9.6 SE 14.8 SE 0.0 475.8
08:45 28.2 36.5 56.7 1020.2 8.3 SE 11.6 ESE 0.0 514.2
08:50 28.2 36.7 58.1 1020.3 7.9 SE 14.1 SE 0.0 527.0
08:55 28.3 36.9 54.3 1020.3 9.7 SE 14.1 E 0.0 538.8
09:00 28.4 37.0 53.8 1020.4 10.2 SE 20.1 SE 0.0 549.8
09:05 28.5 37.0 49.8 1020.4 9.9 ESE 15.2 SE 0.0 560.5
09:10 28.8 37.1 49.3 1020.3 9.7 SE 16.9 ESE 0.0 570.6
09:15 29.0 37.3 47.6 1020.4 11.5 SE 16.9 SE 0.0 580.1
09:20 29.1 37.5 44.5 1020.5 11.6 SE 18.0 SE 0.0 589.5
09:25 29.2 37.7 43.2 1020.5 9.8 ESE 17.6 SE 0.0 599.1
09:30 29.3 37.8 42.5 1020.4 12.3 SE 19.8 SE 0.0 609.1
09:35 29.3 37.9 43.5 1020.4 10.5 SE 19.1 ESE 0.0 617.3
09:40 29.5 38.0 43.5 1020.5 10.0 SE 18.7 ESE 0.0 626.0
09:45 29.5 38.3 42.2 1020.6 10.8 SE 18.0 SE 0.0 634.4
09:50 29.5 38.4 44.1 1020.6 12.1 ESE 19.1 E 0.0 641.3
09:55 29.3 38.4 48.6 1020.6 11.4 SE 18.7 ESE 0.0 648.4
10:00 29.2 38.4 49.0 1020.6 10.0 SE 17.3 ESE 0.0 655.1
10:05 29.1 38.5 50.3 1020.7 10.5 SE 16.2 ESE 0.0 661.6
10:10 29.1 38.7 48.7 1020.8 8.5 ESE 15.5 ESE 0.0 667.7
10:15 29.4 39.0 48.8 1020.8 8.6 SE 16.9 S 0.0 675.0
10:20 29.1 39.4 48.7 1020.8 10.7 SE 15.5 SSE 0.0 681.8
10:25 29.0 39.3 47.9 1020.8 10.4 ESE 17.3 SE 0.0 687.8
10:30 28.9 39.2 48.9 1020.9 10.7 SE 19.8 SSE 0.0 691.3
10:35 29.0 39.1 48.6 1020.9 11.3 ESE 17.3 ESE 0.0 697.7
10:40 28.9 39.0 52.8 1020.9 10.6 SE 21.9 SE 0.0 703.3
10:45 28.9 38.9 46.6 1020.8 10.5 ESE 15.5 ESE 0.0 708.9
10:50 28.9 38.9 47.7 1020.8 13.1 ESE 18.4 E 0.0 710.1
10:55 28.8 38.9 47.7 1020.8 10.8 SE 19.1 ESE 0.0 702.0
11:00 29.0 39.0 49.0 1020.9 10.6 SE 17.3 ESE 0.0 710.7
11:05 29.0 39.2 49.7 1020.9 11.2 SSE 19.4 SSE 0.0 710.2
11:10 28.9 39.3 51.5 1020.9 9.5 SSE 17.6 S 0.0 727.2
11:15 28.9 39.6 51.6 1021.0 11.5 SSE 21.2 SSE 0.0 729.6
11:20 28.7 39.7 50.7 1021.0 10.2 SE 17.3 SE 0.0 731.2
11:25 28.8 39.8 51.9 1020.9 10.7 SSE 18.0 SSE 0.0 730.3
11:30 28.8 39.8 51.3 1020.9 11.9 S 19.4 SSE 0.0 733.4
11:35 29.1 40.0 48.8 1020.9 11.4 S 21.2 SSE 0.0 735.6
11:40 28.7 39.9 48.8 1021.0 12.5 SSE 19.4 SSE 0.0 737.8
11:45 28.7 39.8 48.5 1021.1 11.6 SSE 20.8 SSE 0.0 737.2
11:50 28.8 39.8 48.6 1021.0 14.0 S 22.6 S 0.0 737.4
11:55 28.9 39.8 48.9 1021.0 10.7 SSE 19.1 S 0.0 740.3
12:00 28.8 39.7 50.9 1021.0 12.5 SSE 22.6 SE 0.0 741.5
12:05 28.7 39.7 51.4 1021.0 11.3 SSE 20.8 SSE 0.0 701.0
12:10 28.8 39.6 49.9 1020.9 9.3 SE 19.4 SE 0.0 706.2
12:15 29.0 39.7 49.7 1020.9 13.4 S 25.1 SSW 0.0 726.4
12:20 28.8 39.4 52.3 1021.0 10.6 SE 18.4 SE 0.0 719.0
12:25 28.7 39.2 50.9 1021.0 13.6 SE 21.2 SSE 0.0 715.2
Máxima 29.5 40.0 79.0 1021.1 15.1 NNW 25.1 SSW 0.0 741.5
Mínima 20 20 42.2 1018.6
Total 0.0